Flight Track Log - Related Links

Times and Time Zones

All times are in EDT time to prevent confusion due to time zone crossing. See the CTL16 flight status page for this flight to view local times or setup timezone preferences in your user account.

Time Position Orientation Groundspeed Altitude Reporting Facility
EDT Latitude Longitude Course Direction KTS MPH feet Rate Location/Type
Mon 08:26:20 PM 39.3833 -84.5333 50° Northeast 147 169 1,600  Level Cincinnati TRACON
Mon 08:26:45 PM 39.3919 -84.5203 50° Northeast 137 158 2,000 774 Climbing Indianapolis Center
Mon 08:27:22 PM 39.4089 -84.4956 48° Northeast 147 169 2,400 607 Climbing Indianapolis Center
Mon 08:28:14 PM 39.4322 -84.4611 49° Northeast 142 163 2,900 632 Climbing Indianapolis Center
Mon 08:29:16 PM 39.4628 -84.4178 48° Northeast 159 183 3,600 677 Climbing Indianapolis Center
Mon 08:30:18 PM 39.4969 -84.3753 44° Northeast 164 189 4,300 732 Climbing Indianapolis Center
Mon 08:31:19 PM 39.5364 -84.3272 43° Northeast 166 191 5,100 793 Climbing Indianapolis Center
Mon 08:32:19 PM 39.5681 -84.2897 42° Northeast 161 185 5,900 650 Climbing Indianapolis Center
Mon 08:33:19 PM 39.5986 -84.2478 47° Northeast 161 185 6,400 520 Climbing Indianapolis Center
Mon 08:34:26 PM 39.6378 -84.2017 42° Northeast 164 189 7,000 393 Climbing Indianapolis Center
Mon 08:35:21 PM 39.6681 -84.1622 45° Northeast 171 197 7,200 55 Climbing Indianapolis Center
Mon 08:36:16 PM 39.6989 -84.1175 48° Northeast 181 208 7,100 -99 Descending Indianapolis Center
Mon 08:37:22 PM 39.7386 -84.0656 45° Northeast 189 217 7,000 -45 Descending Indianapolis Center
Mon 08:38:29 PM 39.7783 -84.0111 46° Northeast 181 208 7,000 50 Level Indianapolis Center
Mon 08:39:23 PM 39.8086 -83.9714 45° Northeast 181 208 7,100 52 Climbing Indianapolis Center
Mon 08:40:24 PM 39.8461 -83.9192 47° Northeast 185 213 7,100  Level Indianapolis Center
Mon 08:41:19 PM 39.8764 -83.8797 45° Northeast 184 212 7,100 -167 Level Indianapolis Center
Mon 08:41:36 PM 39.8839 -83.8717 39° Northeast 183 211 6,900  Descending Indianapolis Center
Mon 08:42:25 PM 39.9203 -83.8256 44° Northeast 183 211 7,100 55 Climbing Indianapolis Center
Mon 08:43:26 PM 39.9553 -83.7781 46° Northeast 183 211 7,000 -44 Descending Indianapolis Center
Mon 08:44:41 PM 40.0003 -83.7217 44° Northeast 183 211 7,000 50 Level Indianapolis Center
Mon 08:45:27 PM 40.0272 -83.6864 45° Northeast 182 209 7,100  Climbing Indianapolis Center
Mon 08:45:42 PM 40.0353 -83.6728 52° Northeast 182 209 7,000  Descending Indianapolis Center
Mon 08:46:28 PM 40.0603 -83.6361 48° Northeast 182 209 7,100  Climbing Indianapolis Center
Mon 08:46:44 PM 40.0708 -83.6244 40° Northeast 182 209 7,000 -98 Descending Indianapolis Center
Mon 08:47:29 PM 40.0992 -83.5892 44° Northeast 184 212 7,000  Level Indianapolis Center
Mon 08:47:45 PM 40.1078 -83.5775 46° Northeast 182 209 7,000 -91 Level Indianapolis Center
Mon 08:48:35 PM 40.1386 -83.5367 45° Northeast 184 212 6,900  Descending Indianapolis Center
Mon 08:49:48 PM 40.1797 -83.4806 46° Northeast 184 212 7,000 47 Climbing Indianapolis Center
Mon 08:50:43 PM 40.2153 -83.4342 45° Northeast 184 212 7,000  Level Indianapolis Center
Mon 08:51:43 PM 40.2519 -83.3867 45° Northeast 182 209 7,000  Level Indianapolis Center
Mon 08:52:44 PM 40.2889 -83.3419 43° Northeast 183 211 7,000  Level Indianapolis Center
Mon 08:53:33 PM 40.3186 -83.3047 44° Northeast 184 212 7,000  Level Indianapolis Center
Mon 08:53:54 PM 40.3269 -83.2908 52° Northeast 186 214 7,000  Level Indianapolis Center
Mon 08:54:56 PM 40.3622 -83.2419 47° Northeast 184 212 7,000  Level Indianapolis Center
Mon 08:55:57 PM 40.3958 -83.1911 49° Northeast 182 209 7,000  Level Indianapolis Center
Mon 08:56:58 PM 40.4322 -83.1428 45° Northeast 186 214 7,000  Level Indianapolis Center
Mon 08:58:00 PM 40.4742 -83.0853 46° Northeast 187 215 7,000  Level Indianapolis Center
Mon 08:59:01 PM 40.5083 -83.0342 49° Northeast 186 214 7,000  Level Indianapolis Center
Mon 09:00:02 PM 40.5431 -82.9850 47° Northeast 186 214 7,000  Level Indianapolis Center
Mon 09:01:04 PM 40.5775 -82.9356 47° Northeast 183 211 7,000 49 Level Indianapolis Center
Mon 09:02:05 PM 40.6150 -82.8847 46° Northeast 189 217 7,100 -49 Climbing Indianapolis Center
Mon 09:03:07 PM 40.6503 -82.8336 48° Northeast 188 216 6,900 -293 Descending Indianapolis Center
Mon 09:04:08 PM 40.6875 -82.7811 47° Northeast 194 223 6,500 -393 Descending Indianapolis Center
Mon 09:05:09 PM 40.7264 -82.7297 45° Northeast 196 226 6,100 -439 Descending Indianapolis Center
Mon 09:06:11 PM 40.7647 -82.6764 46° Northeast 198 228 5,600 -488 Descending Indianapolis Center
Mon 09:07:12 PM 40.8017 -82.6214 48° Northeast 200 230 5,100 -492 Descending Indianapolis Center

Login

Don't have an account? Register now (free) for customized features, flight alerts, and more!